createdAt,value
2019-02-07T00:01:31.936Z,95592.79
2019-02-07T00:03:57.967Z,95600.25
2019-02-07T00:06:23.999Z,95595.45
2019-02-07T00:08:49.995Z,95593.28
2019-02-07T00:11:16.028Z,95589.29
2019-02-07T00:13:42.021Z,95589.38
2019-02-07T00:16:08.060Z,95586.70
2019-02-07T00:18:34.089Z,95584.45
2019-02-07T00:21:00.083Z,95583.66
2019-02-07T00:23:26.083Z,95592.88
2019-02-07T00:25:52.121Z,95594.70
2019-02-07T00:28:18.171Z,95592.98
2019-02-07T00:30:44.148Z,95583.66
2019-02-07T00:33:10.248Z,95589.06
2019-02-07T00:35:36.189Z,95588.15
2019-02-07T00:38:02.187Z,95586.31
2019-02-07T00:40:28.218Z,95583.23
2019-02-07T00:42:54.306Z,95578.41
2019-02-07T00:45:20.958Z,95580.65
2019-02-07T00:47:47.007Z,95587.84
2019-02-07T00:50:12.991Z,95587.01
2019-02-07T00:52:39.083Z,95579.02
2019-02-07T00:55:05.018Z,95579.92
2019-02-07T00:57:31.017Z,95571.94
2019-02-07T00:59:57.015Z,95569.38
2019-02-07T01:02:23.061Z,95574.18
2019-02-07T01:04:49.054Z,95582.17
2019-02-07T01:07:15.111Z,95575.63
2019-02-07T01:09:41.080Z,95579.28
2019-02-07T01:12:07.078Z,95577.38
2019-02-07T01:14:33.111Z,95580.04
2019-02-07T01:16:59.148Z,95570.80
2019-02-07T01:19:25.147Z,95567.21
2019-02-07T01:21:51.172Z,95565.95
2019-02-07T01:24:17.212Z,95564.63
2019-02-07T01:26:43.205Z,95561.96
2019-02-07T01:29:09.194Z,95566.48
2019-02-07T01:31:35.228Z,95570.91
2019-02-07T01:34:01.228Z,95560.32
2019-02-07T01:36:27.261Z,95551.91
2019-02-07T01:38:53.290Z,95556.74
2019-02-07T01:41:19.298Z,95563.48
2019-02-07T01:43:45.290Z,95563.10
2019-02-07T01:46:11.323Z,95565.77
2019-02-07T01:48:37.316Z,95569.34
2019-02-07T01:51:03.331Z,95568.93
2019-02-07T01:53:29.364Z,95570.68
2019-02-07T01:55:55.362Z,95569.34
2019-02-07T01:58:21.394Z,95565.34
2019-02-07T02:00:47.427Z,95566.68
2019-02-07T02:03:13.430Z,95572.09
2019-02-07T02:05:39.443Z,95565.84
2019-02-07T02:08:05.480Z,95562.34
2019-02-07T02:10:31.536Z,95564.09
2019-02-07T02:12:57.544Z,95559.30
2019-02-07T02:15:24.843Z,95565.95
2019-02-07T02:17:49.566Z,95566.88
2019-02-07T02:20:15.554Z,95562.95
2019-02-07T02:22:41.590Z,95565.63
2019-02-07T02:25:07.627Z,95558.54
2019-02-07T02:27:33.627Z,95560.70
2019-02-07T02:29:59.624Z,95558.54
2019-02-07T02:32:25.660Z,95558.54
2019-02-07T02:34:51.647Z,95563.56
2019-02-07T02:37:17.638Z,95567.06
2019-02-07T02:39:43.670Z,95570.53
2019-02-07T02:42:09.666Z,95567.98
2019-02-07T02:44:35.665Z,95567.56
2019-02-07T02:47:01.700Z,95570.23
2019-02-07T02:49:27.697Z,95564.48
2019-02-07T02:51:53.693Z,95561.52
2019-02-07T02:54:19.727Z,95569.39
2019-02-07T02:56:45.726Z,95572.06
2019-02-07T02:59:11.756Z,95569.81
2019-02-07T03:01:37.765Z,95569.09
2019-02-07T03:04:03.796Z,95574.34
2019-02-07T03:06:29.828Z,95570.84
2019-02-07T03:08:55.837Z,95568.67
2019-02-07T03:11:21.837Z,95575.75
2019-02-07T03:13:47.869Z,95569.58
2019-02-07T03:18:58.054Z,95582.11
2019-02-07T03:21:23.919Z,95579.44
2019-02-07T03:23:49.922Z,95584.24
2019-02-07T03:26:15.956Z,95593.68
2019-02-07T03:28:41.961Z,95592.34
2019-02-07T03:31:07.947Z,95591.52
2019-02-07T03:33:34.096Z,95592.42
2019-02-07T03:36:00.167Z,95592.42
2019-02-07T03:38:26.090Z,95591.20
2019-02-07T03:40:52.125Z,95593.38
2019-02-07T03:43:18.157Z,95587.63
2019-02-07T03:45:44.153Z,95590.70
2019-02-07T03:48:10.190Z,95596.12
2019-02-07T03:50:36.225Z,95594.78
2019-02-07T03:53:02.218Z,95592.54
2019-02-07T03:55:28.251Z,95592.12
2019-02-07T03:57:54.286Z,95592.12
2019-02-07T04:03:04.395Z,95594.37
2019-02-07T04:05:30.392Z,95594.86
2019-02-07T04:07:56.398Z,95586.88
2019-02-07T04:10:22.433Z,95589.53
2019-02-07T04:12:48.419Z,95588.63
2019-02-07T04:15:14.427Z,95586.88
2019-02-07T04:17:40.470Z,95586.48
2019-02-07T04:20:06.461Z,95584.73
2019-02-07T04:22:32.511Z,95583.41
2019-02-07T04:27:42.523Z,95586.06
2019-02-07T04:32:52.424Z,95581.73
2019-02-07T04:38:02.204Z,95585.23
2019-02-07T04:40:28.197Z,95582.27
2019-02-07T04:42:54.196Z,95574.16
2019-02-07T04:45:20.240Z,95572.94
2019-02-07T04:47:46.235Z,95573.35
2019-02-07T04:52:59.109Z,95567.08
2019-02-07T04:55:22.236Z,95561.86
2019-02-07T04:57:48.234Z,95574.27
2019-02-07T05:00:15.148Z,95570.27
2019-02-07T05:02:41.190Z,95566.27
2019-02-07T05:05:07.172Z,95568.52
2019-02-07T05:07:33.177Z,95566.27
2019-02-07T05:12:43.365Z,95569.36
2019-02-07T05:17:53.396Z,95572.02
2019-02-07T05:20:19.405Z,95565.36
2019-02-07T05:22:45.399Z,95564.52
2019-02-07T05:25:11.437Z,95566.27
2019-02-07T05:27:37.466Z,95569.85
2019-02-07T05:30:03.460Z,95569.44
2019-02-07T05:32:29.492Z,95574.77
2019-02-07T05:34:55.486Z,95565.44
2019-02-07T05:37:21.495Z,95569.44
2019-02-07T05:39:47.527Z,95565.82
2019-02-07T05:42:13.523Z,95568.52
2019-02-07T05:44:39.550Z,95570.69
2019-02-07T05:47:05.558Z,95566.27
2019-02-07T05:49:31.574Z,95562.36
2019-02-07T05:51:57.607Z,95568.10
2019-02-07T05:54:23.654Z,95579.26
2019-02-07T05:56:49.647Z,95574.88
2019-02-07T05:59:15.667Z,95565.94
2019-02-07T06:01:41.948Z,95565.55
2019-02-07T06:04:08.019Z,95564.11
2019-02-07T06:06:34.024Z,95569.74
2019-02-07T06:09:00.019Z,95565.36
2019-02-07T06:11:26.052Z,95562.28
2019-02-07T06:13:52.041Z,95559.20
2019-02-07T06:16:18.042Z,95564.94
2019-02-07T06:18:44.167Z,95561.75
2019-02-07T06:21:10.076Z,95564.33
2019-02-07T06:23:36.074Z,95564.75
2019-02-07T06:26:02.113Z,95568.64
2019-02-07T06:28:28.112Z,95566.89
2019-02-07T06:30:54.148Z,95564.87
2019-02-07T06:33:20.189Z,95574.08
2019-02-07T06:35:46.184Z,95574.49
2019-02-07T06:38:12.181Z,95573.16
2019-02-07T06:40:38.234Z,95580.13
2019-02-07T06:43:04.228Z,95580.63
2019-02-07T06:45:30.336Z,95581.54
2019-02-07T06:47:56.261Z,95585.95
2019-02-07T06:50:22.253Z,95594.37
2019-02-07T06:52:48.255Z,95597.14
2019-02-07T06:55:14.292Z,95599.81
2019-02-07T06:57:40.287Z,95601.14
2019-02-07T07:00:06.293Z,95604.19
2019-02-07T07:02:32.335Z,95612.30
2019-02-07T07:04:58.325Z,95613.52
2019-02-07T07:07:24.345Z,95610.05
2019-02-07T07:09:50.382Z,95605.63
2019-02-07T07:12:16.379Z,95606.86
2019-02-07T07:14:42.375Z,95607.80
2019-02-07T07:17:08.414Z,95600.20
2019-02-07T07:19:34.460Z,95605.86
2019-02-07T07:22:00.453Z,95605.02
2019-02-07T07:24:26.483Z,95599.20
2019-02-07T07:26:52.480Z,95597.03
2019-02-07T07:29:18.578Z,95597.37
2019-02-07T07:31:44.619Z,95599.66
2019-02-07T07:34:10.615Z,95596.95
2019-02-07T07:36:36.627Z,95596.95
2019-02-07T07:39:02.684Z,95591.62
2019-02-07T07:41:28.682Z,95592.62
2019-02-07T07:43:54.676Z,95591.70
2019-02-07T07:46:20.714Z,95606.36
2019-02-07T07:48:46.711Z,95599.28
2019-02-07T07:51:12.771Z,95609.02
2019-02-07T07:53:38.766Z,95609.52
2019-02-07T07:56:04.770Z,95614.05
2019-02-07T07:58:30.804Z,95615.38
2019-02-07T08:00:56.799Z,95630.45
2019-02-07T08:03:22.840Z,95635.78
2019-02-07T08:05:48.880Z,95639.44
2019-02-07T08:08:14.876Z,95638.03
2019-02-07T08:10:40.880Z,95630.11
2019-02-07T08:13:06.915Z,95623.98
2019-02-07T08:15:32.912Z,95629.31
2019-02-07T08:17:58.912Z,95620.06
2019-02-07T08:20:24.953Z,95624.97
2019-02-07T08:22:50.950Z,95626.50
2019-02-07T08:25:16.944Z,95628.55
2019-02-07T08:27:42.979Z,95620.98
2019-02-07T08:30:08.974Z,95623.22
2019-02-07T08:32:34.968Z,95628.97
2019-02-07T08:35:01.003Z,95633.50
2019-02-07T08:37:27.006Z,95623.75
2019-02-07T08:39:52.993Z,95631.63
2019-02-07T08:42:19.030Z,95626.31
2019-02-07T08:44:45.035Z,95627.56
2019-02-07T08:47:11.176Z,95614.31
2019-02-07T08:49:37.076Z,95608.45
2019-02-07T08:52:03.078Z,95621.39
2019-02-07T08:54:29.073Z,95618.73
2019-02-07T08:56:55.111Z,95612.48
2019-02-07T08:59:21.111Z,95609.41
2019-02-07T09:01:47.103Z,95610.31
2019-02-07T09:04:13.136Z,95607.66
2019-02-07T09:06:39.162Z,95612.06
2019-02-07T09:09:05.163Z,95608.56
2019-02-07T09:11:31.195Z,95616.56
2019-02-07T09:13:57.195Z,95606.85
2019-02-07T09:16:23.192Z,95614.31
2019-02-07T09:18:49.226Z,95616.06
2019-02-07T09:21:15.225Z,95611.57
2019-02-07T09:23:41.237Z,95607.16
2019-02-07T09:26:07.275Z,95608.08
2019-02-07T09:28:33.311Z,95607.66
2019-02-07T09:31:00.803Z,95619.23
2019-02-07T09:33:26.909Z,95621.39
2019-02-07T09:35:51.411Z,95613.90
2019-02-07T09:38:17.403Z,95622.42
2019-02-07T09:40:43.395Z,95626.42
2019-02-07T09:43:09.435Z,95622.42
2019-02-07T09:45:35.434Z,95614.92
2019-02-07T09:48:01.431Z,95608.68
2019-02-07T09:50:27.468Z,95606.09
2019-02-07T09:52:53.464Z,95607.42
2019-02-07T09:55:19.455Z,95613.70
2019-02-07T09:57:45.503Z,95619.11
2019-02-07T10:00:11.499Z,95615.03
2019-02-07T10:02:37.496Z,95615.53
2019-02-07T10:05:03.531Z,95608.88
2019-02-07T10:07:29.526Z,95600.46
2019-02-07T10:09:55.526Z,95601.80
2019-02-07T10:12:21.559Z,95590.72
2019-02-07T10:14:47.554Z,95592.47
2019-02-07T10:17:13.557Z,95591.63
2019-02-07T10:19:39.598Z,95581.81
2019-02-07T10:22:05.592Z,95577.81
2019-02-07T10:24:31.589Z,95579.98
2019-02-07T10:26:57.630Z,95570.73
2019-02-07T10:29:23.628Z,95571.16
2019-02-07T10:31:49.623Z,95562.93
2019-02-07T10:34:15.665Z,95559.58
2019-02-07T10:36:41.670Z,95560.91
2019-02-07T10:39:07.707Z,95561.83
2019-02-07T10:41:33.769Z,95557.41
2019-02-07T10:43:59.751Z,95555.58
2019-02-07T10:46:25.750Z,95556.50
2019-02-07T10:48:51.783Z,95550.25
2019-02-07T10:51:17.824Z,95546.14
2019-02-07T10:53:43.860Z,95550.67
2019-02-07T10:56:09.891Z,95546.14
2019-02-07T10:58:35.922Z,95548.00
2019-02-07T11:01:01.919Z,95546.86
2019-02-07T11:03:27.961Z,95542.34
2019-02-07T11:05:54.645Z,95541.42
2019-02-07T11:08:19.957Z,95547.59
2019-02-07T11:10:45.997Z,95533.43
2019-02-07T11:13:11.986Z,95530.47
2019-02-07T11:15:37.988Z,95528.63
2019-02-07T11:18:04.033Z,95526.88
2019-02-07T11:20:30.024Z,95519.31
2019-02-07T11:22:56.026Z,95521.03
2019-02-07T11:25:22.064Z,95513.98
2019-02-07T11:27:48.059Z,95510.48
2019-02-07T11:30:14.054Z,95512.12
2019-02-07T11:32:40.106Z,95508.12
2019-02-07T11:35:06.140Z,95506.38
2019-02-07T11:37:32.128Z,95501.05
2019-02-07T11:39:58.162Z,95499.62
2019-02-07T11:42:24.164Z,95501.05
2019-02-07T11:44:50.762Z,95496.24
2019-02-07T11:47:16.200Z,95492.66
2019-02-07T11:49:42.204Z,95488.75
2019-02-07T11:52:08.199Z,95492.74
2019-02-07T11:54:34.239Z,95494.49
2019-02-07T11:57:00.241Z,95484.67
2019-02-07T11:59:26.249Z,95484.75
2019-02-07T12:01:52.311Z,95482.92
2019-02-07T12:04:18.314Z,95478.51
2019-02-07T12:06:44.308Z,95477.67
2019-02-07T12:09:10.342Z,95475.84
2019-02-07T12:11:36.346Z,95477.18
2019-02-07T12:14:02.339Z,95472.71
2019-02-07T12:16:28.378Z,95473.02
2019-02-07T12:18:54.412Z,95483.76
2019-02-07T12:21:20.539Z,95477.20
2019-02-07T12:23:46.604Z,95480.78
2019-02-07T12:26:12.602Z,95477.40
2019-02-07T12:28:38.715Z,95474.32
2019-02-07T12:31:04.746Z,95471.55
2019-02-07T12:33:30.739Z,95467.66
2019-02-07T12:35:56.738Z,95463.66
2019-02-07T12:38:22.798Z,95460.16
2019-02-07T12:40:48.804Z,95455.86
2019-02-07T12:43:14.800Z,95458.41
2019-02-07T12:45:40.840Z,95459.25
2019-02-07T12:48:06.845Z,95450.95
2019-02-07T12:50:32.830Z,95449.63
2019-02-07T12:52:58.869Z,95458.03
2019-02-07T12:55:26.790Z,95456.17
2019-02-07T12:57:50.872Z,95457.50
2019-02-07T13:00:16.914Z,95447.76
2019-02-07T13:02:42.923Z,95453.42
2019-02-07T13:05:08.926Z,95451.25
2019-02-07T13:07:34.958Z,95453.00
2019-02-07T13:10:00.955Z,95449.84
2019-02-07T13:12:26.976Z,95445.73
2019-02-07T13:14:53.194Z,95440.82
2019-02-07T13:17:19.223Z,95447.06
2019-02-07T13:19:45.274Z,95443.56
2019-02-07T13:22:11.406Z,95439.48
2019-02-07T13:24:37.346Z,95442.04
2019-02-07T13:27:03.396Z,95439.91
2019-02-07T13:29:29.402Z,95437.96
2019-02-07T13:31:55.419Z,95443.52
2019-02-07T13:34:21.434Z,95429.36
2019-02-07T13:36:47.428Z,95439.52
2019-02-07T13:39:13.435Z,95441.55
2019-02-07T13:41:39.476Z,95433.25
2019-02-07T13:44:05.478Z,95437.32
2019-02-07T13:46:31.527Z,95441.32
2019-02-07T13:48:57.529Z,95434.46
2019-02-07T13:51:23.640Z,95434.58
2019-02-07T13:53:49.530Z,95438.88
2019-02-07T13:56:16.168Z,95438.05
2019-02-07T13:58:42.172Z,95439.32
2019-02-07T14:01:08.211Z,95442.41
2019-02-07T14:03:34.244Z,95439.82
2019-02-07T14:06:00.244Z,95437.16
2019-02-07T14:08:37.845Z,95431.52
2019-02-07T14:10:52.281Z,95437.77
2019-02-07T14:13:18.278Z,95435.60
2019-02-07T14:15:44.278Z,95438.69
2019-02-07T14:18:10.356Z,95433.77
2019-02-07T14:20:36.383Z,95437.77
2019-02-07T14:23:02.383Z,95443.55
2019-02-07T14:25:28.420Z,95434.32
2019-02-07T14:27:54.419Z,95437.19
2019-02-07T14:30:20.416Z,95432.47
2019-02-07T14:32:46.460Z,95439.43
2019-02-07T14:35:12.457Z,95433.38
2019-02-07T14:37:38.457Z,95430.63
2019-02-07T14:40:04.520Z,95434.74
2019-02-07T14:42:30.558Z,95432.69
2019-02-07T14:44:56.560Z,95428.89
2019-02-07T14:47:22.628Z,95432.69
2019-02-07T14:49:48.617Z,95421.20
2019-02-07T14:52:14.632Z,95422.11
2019-02-07T14:54:40.719Z,95419.56
2019-02-07T14:57:06.671Z,95424.36
2019-02-07T14:59:32.667Z,95424.70
2019-02-07T15:01:58.699Z,95426.11
2019-02-07T15:04:24.695Z,95429.61
2019-02-07T15:06:50.704Z,95417.22
2019-02-07T15:09:16.746Z,95426.25
2019-02-07T15:11:42.777Z,95421.86
2019-02-07T15:14:08.758Z,95424.62
2019-02-07T15:16:34.804Z,95424.30
2019-02-07T15:19:00.835Z,95420.58
2019-02-07T15:21:26.862Z,95418.45
2019-02-07T15:23:52.990Z,95417.50
2019-02-07T15:26:18.984Z,95420.17
2019-02-07T15:28:44.984Z,95417.61
2019-02-07T15:31:11.084Z,95417.11
2019-02-07T15:33:37.137Z,95421.61
2019-02-07T15:36:03.142Z,95417.30
2019-02-07T15:38:29.141Z,95415.39
2019-02-07T15:40:55.562Z,95407.59
2019-02-07T15:43:21.679Z,95416.41
2019-02-07T15:45:47.675Z,95418.25
2019-02-07T15:48:13.814Z,95413.33
2019-02-07T15:50:39.884Z,95415.30
2019-02-07T15:53:05.890Z,95407.28
2019-02-07T15:55:31.934Z,95411.92
2019-02-07T15:57:57.943Z,95414.78
2019-02-07T16:00:23.935Z,95410.37
2019-02-07T16:02:50.149Z,95409.87
2019-02-07T16:05:16.060Z,95410.45
2019-02-07T16:07:42.058Z,95417.11
2019-02-07T16:10:08.116Z,95414.45
2019-02-07T16:12:34.110Z,95415.89
2019-02-07T16:15:00.200Z,95420.19
2019-02-07T16:17:26.157Z,95420.30
2019-02-07T16:19:52.150Z,95417.94
2019-02-07T16:22:18.185Z,95417.11
2019-02-07T16:24:44.223Z,95417.11
2019-02-07T16:27:10.236Z,95417.11
2019-02-07T16:29:36.304Z,95418.44
2019-02-07T16:32:02.341Z,95417.53
2019-02-07T16:34:28.377Z,95425.02
2019-02-07T16:36:54.371Z,95425.22
2019-02-07T16:39:20.370Z,95428.52
2019-02-07T16:41:46.411Z,95425.12
2019-02-07T16:44:12.418Z,95429.66
2019-02-07T16:46:38.483Z,95431.59
2019-02-07T16:49:04.717Z,95427.98
2019-02-07T16:51:30.765Z,95434.38
2019-02-07T16:53:56.770Z,95434.80
2019-02-07T16:56:22.774Z,95434.18
2019-02-07T16:58:48.823Z,95432.02
2019-02-07T17:01:14.829Z,95439.40
2019-02-07T17:03:40.822Z,95442.59
2019-02-07T17:06:06.866Z,95442.59
2019-02-07T17:08:32.868Z,95441.64
2019-02-07T17:10:58.938Z,95436.02
2019-02-07T17:13:25.001Z,95438.98
2019-02-07T17:15:50.996Z,95436.84
2019-02-07T17:18:17.051Z,95436.23
2019-02-07T17:20:43.062Z,95438.38
2019-02-07T17:23:09.053Z,95440.73
2019-02-07T17:25:35.202Z,95439.17
2019-02-07T17:28:01.212Z,95437.77
2019-02-07T17:30:27.242Z,95436.31
2019-02-07T17:32:53.356Z,95443.73
2019-02-07T17:35:19.389Z,95438.98
2019-02-07T17:37:45.577Z,95439.40
2019-02-07T17:40:11.587Z,95445.14
2019-02-07T17:42:37.567Z,95441.45
2019-02-07T17:45:03.618Z,95438.70
2019-02-07T17:47:29.617Z,95442.28
2019-02-07T17:49:55.614Z,95447.53
2019-02-07T17:52:21.650Z,95441.06
2019-02-07T17:54:47.645Z,95440.42
2019-02-07T17:57:13.643Z,95440.31
2019-02-07T17:59:39.695Z,95448.72
2019-02-07T18:02:06.184Z,95440.84
2019-02-07T18:04:32.179Z,95442.59
2019-02-07T18:06:58.216Z,95442.06
2019-02-07T18:09:24.219Z,95448.84
2019-02-07T18:11:50.244Z,95446.89
2019-02-07T18:14:16.285Z,95452.22
2019-02-07T18:16:42.288Z,95451.39
2019-02-07T18:19:08.280Z,95455.30
2019-02-07T18:21:34.615Z,95451.39
2019-02-07T18:24:00.370Z,95459.11
2019-02-07T18:26:26.375Z,95456.11
2019-02-07T18:28:52.372Z,95462.69
2019-02-07T18:31:18.429Z,95464.10
2019-02-07T18:33:44.447Z,95462.58
2019-02-07T18:36:10.462Z,95462.39
2019-02-07T18:38:38.682Z,95457.05
2019-02-07T18:41:04.750Z,95457.44
2019-02-07T18:43:30.757Z,95460.64
2019-02-07T18:45:56.752Z,95465.13
2019-02-07T18:48:22.793Z,95463.80
2019-02-07T18:50:50.588Z,95462.05
2019-02-07T18:53:14.883Z,95467.30
2019-02-07T18:55:40.854Z,95472.63
2019-02-07T18:58:06.846Z,95474.88
2019-02-07T19:00:37.256Z,95473.84
2019-02-07T19:03:03.419Z,95469.84
2019-02-07T19:05:29.420Z,95477.05
2019-02-07T19:07:55.467Z,95478.56
2019-02-07T19:10:21.462Z,95476.04
2019-02-07T19:12:47.462Z,95477.57
2019-02-07T19:15:13.494Z,95476.04
2019-02-07T19:17:39.488Z,95478.02
2019-02-07T19:20:08.720Z,95474.71
2019-02-07T19:22:34.764Z,95473.85
2019-02-07T19:25:05.088Z,95468.33
2019-02-07T19:27:33.542Z,95473.66
2019-02-07T19:29:59.577Z,95470.66
2019-02-07T19:32:25.575Z,95468.33
2019-02-07T19:34:51.585Z,95463.66
2019-02-07T19:37:17.629Z,95464.84
2019-02-07T19:39:44.215Z,95457.69
2019-02-07T19:42:10.275Z,95458.94
2019-02-07T19:44:36.328Z,95462.24
2019-02-07T19:47:02.323Z,95459.08
2019-02-07T19:49:28.317Z,95455.58
2019-02-07T19:51:54.360Z,95457.25
2019-02-07T19:54:20.355Z,95453.13
2019-02-07T19:56:46.406Z,95454.88
2019-02-07T19:59:12.384Z,95450.58
2019-02-07T20:01:38.416Z,95452.63
2019-02-07T20:04:04.451Z,95451.80
2019-02-07T20:06:30.453Z,95446.61
2019-02-07T20:08:56.502Z,95447.72
2019-02-07T20:11:22.511Z,95445.05
2019-02-07T20:13:48.514Z,95440.22
2019-02-07T20:16:14.660Z,95438.67
2019-02-07T20:18:40.712Z,95438.28
2019-02-07T20:21:06.713Z,95432.45
2019-02-07T20:23:32.715Z,95432.73
2019-02-07T20:25:58.750Z,95430.89
2019-02-07T20:28:24.747Z,95429.48
2019-02-07T20:33:16.917Z,95415.52
2019-02-07T20:35:43.006Z,95426.39
2019-02-07T20:38:09.000Z,95421.86
2019-02-07T20:40:35.040Z,95419.95
2019-02-07T20:43:01.081Z,95423.42
2019-02-07T20:45:27.086Z,95423.53
2019-02-07T20:47:53.080Z,95419.62
2019-02-07T20:50:19.115Z,95421.76
2019-02-07T20:52:45.106Z,95416.09
2019-02-07T20:55:11.105Z,95412.55
2019-02-07T20:57:37.146Z,95409.02
2019-02-07T21:00:03.141Z,95405.72
2019-02-07T21:02:29.142Z,95405.72
2019-02-07T21:04:55.188Z,95405.63
2019-02-07T21:07:21.182Z,95399.66
2019-02-07T21:10:00.854Z,95404.58
2019-02-07T21:12:26.835Z,95397.61
2019-02-07T21:14:52.835Z,95397.70
2019-02-07T21:17:18.908Z,95400.77
2019-02-07T21:19:44.875Z,95404.36
2019-02-07T21:22:10.912Z,95394.31
2019-02-07T21:24:36.947Z,95392.67
2019-02-07T21:27:02.944Z,95393.59
2019-02-07T21:29:28.986Z,95395.42
2019-02-07T21:31:55.017Z,95390.09
2019-02-07T21:34:21.015Z,95386.52
2019-02-07T21:36:47.041Z,95388.16
2019-02-07T21:39:13.094Z,95387.82
2019-02-07T21:41:39.090Z,95382.91
2019-02-07T21:44:05.087Z,95385.57
2019-02-07T21:46:31.123Z,95384.36
2019-02-07T21:48:57.118Z,95386.07
2019-02-07T21:51:23.118Z,95388.35
2019-02-07T21:53:49.156Z,95390.19
2019-02-07T21:56:15.179Z,95387.22
2019-02-07T21:58:41.221Z,95389.88
2019-02-07T22:01:07.235Z,95386.46
2019-02-07T22:03:33.237Z,95387.41
2019-02-07T22:05:59.268Z,95384.63
2019-02-07T22:08:25.306Z,95378.59
2019-02-07T22:10:51.303Z,95385.25
2019-02-07T22:13:17.337Z,95386.16
2019-02-07T22:15:43.333Z,95379.20
2019-02-07T22:18:09.369Z,95386.77
2019-02-07T22:20:35.364Z,95386.28
2019-02-07T22:23:01.366Z,95384.61
2019-02-07T22:25:27.404Z,95390.36
2019-02-07T22:27:53.396Z,95387.69
2019-02-07T22:30:19.427Z,95383.81
2019-02-07T22:32:45.467Z,95382.06
2019-02-07T22:35:11.461Z,95381.23
2019-02-07T22:37:37.497Z,95380.92
2019-02-07T22:40:03.497Z,95372.81
2019-02-07T22:42:29.528Z,95376.31
2019-02-07T22:44:55.563Z,95370.15
2019-02-07T22:47:21.567Z,95371.48
2019-02-07T22:49:47.596Z,95369.44
2019-02-07T22:52:13.634Z,95368.59
2019-02-07T22:54:39.661Z,95366.47
2019-02-07T22:57:05.625Z,95371.68
2019-02-07T22:59:31.683Z,95369.21
2019-02-07T23:01:57.671Z,95368.30
2019-02-07T23:04:23.709Z,95362.47
2019-02-07T23:06:49.747Z,95369.55
2019-02-07T23:09:15.774Z,95365.63
2019-02-07T23:11:41.766Z,95369.55
2019-02-07T23:14:07.801Z,95368.30
2019-02-07T23:16:33.800Z,95363.47
2019-02-07T23:18:59.800Z,95364.91
2019-02-07T23:21:25.841Z,95367.05
2019-02-07T23:23:51.835Z,95372.38
2019-02-07T23:26:17.831Z,95369.41
2019-02-07T23:28:43.862Z,95365.83
2019-02-07T23:31:09.859Z,95362.33
2019-02-07T23:33:35.895Z,95364.99
2019-02-07T23:36:01.928Z,95360.08
2019-02-07T23:38:27.921Z,95360.58
2019-02-07T23:40:53.915Z,95358.86
2019-02-07T23:43:19.955Z,95352.20
2019-02-07T23:45:45.999Z,95350.45
2019-02-07T23:48:11.999Z,95352.28
2019-02-07T23:50:38.005Z,95354.03
2019-02-07T23:53:04.045Z,95354.65
2019-02-07T23:55:30.039Z,95348.41
2019-02-07T23:57:56.076Z,95351.98
